Terminal Aerodrome Forecast
Issued by NWS Charleston, WV

Current Version | Previous Version | Text Only | Print | Product List | Glossary Off
Versions: 1 2 3 4 5 6 7 8 9 10 11 12 13 14 15 16 17 18 19 20 21 22 23 24 25 26 27 28 29 30 31 32 33

000
FTUS41 KRLX 012000 AAA
TAFCRW
TAF AMD
KCRW 012012Z 0120/0218 23008KT P6SM SCT035
     FM012100 28012G25KT 1SM TSRA SCT025CB BKN035
     FM012135 23007KT P6SM BKN035
     FM020400 VRB03KT 6SM BR SCT045
     FM020800 00000KT 3SM BR SCT045
     FM021100 00000KT 2SM BR FEW001 SCT035
     FM021300 23008KT P6SM BKN035
     FM021600 23008KT P6SM VCTS BKN035CB=

USA.gov is the U.S. government's official web portal to all federal, state and local government web resources and services.